| A | B | C | D | E | F | G | H | I | J | K | L | M | N | O | P | Q | R | S | T | U | V | W | X | Y | Z | |
|---|---|---|---|---|---|---|---|---|---|---|---|---|---|---|---|---|---|---|---|---|---|---|---|---|---|---|
1 | 11225_11925AQY-R AB 0324 Data Export (2) | |||||||||||||||||||||||||
2 | Grand Valley State University · Wilbur Technical Services, LLC (AQY-R AB 0324) | |||||||||||||||||||||||||
3 | Instrument Data export | |||||||||||||||||||||||||
4 | 2025-11-02 to 2025-11-08 | |||||||||||||||||||||||||
5 | (UTC-05:00) Eastern Time (US & Canada) (Adjust for daylight saving time automatically) | |||||||||||||||||||||||||
6 | Averaging period: 1 hour | |||||||||||||||||||||||||
7 | ||||||||||||||||||||||||||
8 | Time | NO2 (ppb) | O3 (ppb) | PM2.5 (µg/m³) | PM10 (µg/m³) | Battery voltage (V) | TEMP (°C) | RH (%) | DP (°C) | |||||||||||||||||
9 | 2025-11-02 00:00:00 | 7.7 | 13.3 | 5.4 | 14.5 | 11.8 | 5.46 | 89.3 | 3.8 | |||||||||||||||||
10 | 2025-11-02 01:00:00 | 7.8 | 11 | 5.3 | 14.3 | 11.799 | 5.4 | 88 | 3.6 | |||||||||||||||||
11 | 2025-11-02 01:00:00 | 9.1 | 3.2 | 5.7 | 14.9 | 11.802 | 4.63 | 91.1 | 3.3 | |||||||||||||||||
12 | 2025-11-02 02:00:00 | 10.6 | 0.2 | 5.5 | 14.6 | 11.799 | 4.19 | 91.9 | 3 | |||||||||||||||||
13 | 2025-11-02 03:00:00 | 10.6 | 0.1 | 6.1 | 15.9 | 11.801 | 3.16 | 94.6 | 2.4 | |||||||||||||||||
14 | 2025-11-02 04:00:00 | 8.6 | 0.1 | 6.4 | 16.4 | 11.796 | 2.64 | 95.7 | 2 | |||||||||||||||||
15 | 2025-11-02 05:00:00 | 7.9 | 0.2 | 4.5 | 12.5 | 11.798 | 2.84 | 93.2 | 1.8 | |||||||||||||||||
16 | 2025-11-02 06:00:00 | 9.1 | 1 | 4.1 | 11.8 | 11.793 | 2.48 | 93.5 | 1.5 | |||||||||||||||||
17 | 2025-11-02 07:00:00 | 9.7 | 0.1 | 5.4 | 15.6 | 11.793 | 2.33 | 94.6 | 1.5 | |||||||||||||||||
18 | 2025-11-02 08:00:00 | 9.5 | 0.1 | 5.3 | 14.5 | 11.798 | 3.57 | 90.7 | 2.2 | |||||||||||||||||
19 | 2025-11-02 09:00:00 | 8.7 | 5.1 | 10.3 | 24.7 | 11.797 | 6.24 | 81.6 | 3.3 | |||||||||||||||||
20 | 2025-11-02 10:00:00 | 7 | 17.7 | 14.5 | 33.3 | 11.802 | 10 | 69.9 | 4.7 | |||||||||||||||||
21 | 2025-11-02 11:00:00 | 4.9 | 36.8 | 10.7 | 24.2 | 11.802 | 12.26 | 58.2 | 4.3 | |||||||||||||||||
22 | 2025-11-02 12:00:00 | 4.5 | 35.9 | 12.2 | 27 | 11.808 | 12.81 | 53.2 | 3.5 | |||||||||||||||||
23 | 2025-11-02 13:00:00 | 4.7 | 38.7 | 8.7 | 19.7 | 11.807 | 12.63 | 46.4 | 1.4 | |||||||||||||||||
24 | 2025-11-02 14:00:00 | 4.1 | 40.2 | 6.2 | 15.5 | 11.809 | 12.63 | 43.5 | 0.5 | |||||||||||||||||
25 | 2025-11-02 15:00:00 | 4.5 | 37.6 | 8 | 18.8 | 11.807 | 12.45 | 47.3 | 1.5 | |||||||||||||||||
26 | 2025-11-02 16:00:00 | 6.1 | 35.6 | 9.3 | 21.8 | 11.806 | 11.12 | 51.8 | 1.6 | |||||||||||||||||
27 | 2025-11-02 17:00:00 | 5.4 | 36.5 | 8.4 | 20.5 | 11.807 | 9.72 | 57.1 | 1.6 | |||||||||||||||||
28 | 2025-11-02 18:00:00 | 7.9 | 31.8 | 8.9 | 22.2 | 11.806 | 9.08 | 59.6 | 1.6 | |||||||||||||||||
29 | 2025-11-02 19:00:00 | 8.7 | 30 | 8.8 | 21.5 | 11.806 | 8.45 | 62.7 | 1.7 | |||||||||||||||||
30 | 2025-11-02 20:00:00 | 8.2 | 30.5 | 7.9 | 19.9 | 11.803 | 7.63 | 65.9 | 1.7 | |||||||||||||||||
31 | 2025-11-02 21:00:00 | 6.5 | 33.9 | 6.5 | 17.1 | 11.801 | 7.76 | 62.6 | 1 | |||||||||||||||||
32 | 2025-11-02 22:00:00 | 5.1 | 36.9 | 4 | 11.9 | 11.806 | 8.54 | 56.1 | 0.3 | |||||||||||||||||
33 | 2025-11-02 23:00:00 | 4.3 | 37.7 | 3.6 | 11.8 | 11.805 | 9.03 | 56.6 | 0.9 | |||||||||||||||||
34 | 2025-11-03 00:00:00 | 4.9 | 36.6 | 3.7 | 11.9 | 11.805 | 8.72 | 60.6 | 1.5 | |||||||||||||||||
35 | 2025-11-03 01:00:00 | 4.9 | 34.7 | 3.9 | 11.6 | 11.803 | 8.03 | 65.3 | 1.9 | |||||||||||||||||
36 | 2025-11-03 02:00:00 | 4.7 | 34.4 | 3.2 | 10.2 | 11.806 | 8.89 | 64 | 2.4 | |||||||||||||||||
37 | 2025-11-03 03:00:00 | 4.4 | 35.5 | 2.8 | 8.9 | 11.803 | 9.2 | 62.7 | 2.4 | |||||||||||||||||
38 | 2025-11-03 04:00:00 | 4.8 | 35.1 | 2.9 | 9 | 11.802 | 8.89 | 66.3 | 2.9 | |||||||||||||||||
39 | 2025-11-03 05:00:00 | 5.4 | 32.6 | 3.5 | 9.9 | 11.804 | 8.66 | 74 | 4.3 | |||||||||||||||||
40 | 2025-11-03 06:00:00 | 6.8 | 30.6 | 3.4 | 10 | 11.803 | 8.67 | 81.3 | 5.6 | |||||||||||||||||
41 | 2025-11-03 07:00:00 | 8.1 | 27.2 | 3.5 | 10.6 | 11.805 | 8.15 | 93.9 | 7.2 | |||||||||||||||||
42 | 2025-11-03 08:00:00 | 11 | 18.4 | 4.8 | 13.2 | 11.803 | 8.65 | 92.3 | 7.5 | |||||||||||||||||
43 | 2025-11-03 09:00:00 | 7.3 | 28 | 3.5 | 12.6 | 11.804 | 10.43 | 79.9 | 7.1 | |||||||||||||||||
44 | 2025-11-03 10:00:00 | 6 | 38.1 | 2.4 | 10.3 | 11.804 | 12.02 | 62.4 | 5 | |||||||||||||||||
45 | 2025-11-03 11:00:00 | 5 | 44.2 | 1.9 | 8.4 | 11.802 | 13.05 | 49.3 | 2.6 | |||||||||||||||||
46 | 2025-11-03 12:00:00 | 6.8 | 45.3 | 1.9 | 8.8 | 11.808 | 13.37 | 47 | 2.3 | |||||||||||||||||
47 | 2025-11-03 13:00:00 | 8.1 | 46.1 | 2 | 10 | 11.806 | 12.88 | 47.1 | 1.9 | |||||||||||||||||
48 | 2025-11-03 14:00:00 | 7.2 | 48.2 | 1.9 | 8.7 | 11.808 | 12.86 | 46 | 1.5 | |||||||||||||||||
49 | 2025-11-03 15:00:00 | 7.2 | 48.6 | 1.7 | 8.5 | 11.807 | 13.04 | 42.5 | 0.5 | |||||||||||||||||
50 | 2025-11-03 16:00:00 | 7.5 | 50.1 | 1.7 | 8.1 | 11.807 | 12.99 | 40.8 | 0 | |||||||||||||||||
51 | 2025-11-03 17:00:00 | 9 | 46 | 1.7 | 8.1 | 11.808 | 12.27 | 42 | -0.3 | |||||||||||||||||
52 | 2025-11-03 18:00:00 | 11.6 | 38.5 | 1.8 | 9.1 | 11.807 | 10.96 | 51.9 | 1.4 | |||||||||||||||||
53 | 2025-11-03 19:00:00 | 11 | 39.8 | 1.8 | 9.6 | 11.808 | 10.24 | 57 | 2.1 | |||||||||||||||||
54 | 2025-11-03 20:00:00 | 12.3 | 37.2 | 2 | 9.9 | 11.806 | 10.17 | 54.9 | 1.5 | |||||||||||||||||
55 | 2025-11-03 21:00:00 | 7.8 | 46.7 | 2 | 9 | 11.805 | 10.76 | 45.5 | -0.6 | |||||||||||||||||
56 | 2025-11-03 22:00:00 | 7.5 | 46.5 | 1.7 | 8.3 | 11.806 | 10.35 | 44 | -1.4 | |||||||||||||||||
57 | 2025-11-03 23:00:00 | 11.4 | 34.7 | 1.9 | 8.5 | 11.804 | 8.78 | 51.3 | -0.7 | |||||||||||||||||
58 | 2025-11-04 00:00:00 | 13.7 | 26.3 | 2.3 | 10.4 | 11.805 | 7.29 | 59.1 | -0.2 | |||||||||||||||||
59 | 2025-11-04 01:00:00 | 10 | 31.2 | 2 | 9 | 11.802 | 6.28 | 65.3 | 0.2 | |||||||||||||||||
60 | 2025-11-04 02:00:00 | 11 | 29.5 | 2.1 | 9 | 11.803 | 5.8 | 70 | 0.7 | |||||||||||||||||
61 | 2025-11-04 03:00:00 | 11.8 | 26.3 | 2.1 | 9.2 | 11.8 | 5.5 | 74.2 | 1.3 | |||||||||||||||||
62 | 2025-11-04 04:00:00 | 17.5 | 8.6 | 2.7 | 11.5 | 11.799 | 4.59 | 79.7 | 1.4 | |||||||||||||||||
63 | 2025-11-04 05:00:00 | 22.2 | 0.1 | 2.8 | 12.5 | 11.799 | 4 | 83.7 | 1.5 | |||||||||||||||||
64 | 2025-11-04 06:00:00 | 23.7 | 0.1 | 3.2 | 16.2 | 11.795 | 3.91 | 86.9 | 1.9 | |||||||||||||||||
65 | 2025-11-04 07:00:00 | 26.5 | 0.1 | 4.4 | 21 | 11.8 | 4.24 | 88.2 | 2.5 | |||||||||||||||||
66 | 2025-11-04 08:00:00 | 28 | 0.1 | 4.8 | 22.9 | 11.798 | 5.89 | 83.1 | 3.2 | |||||||||||||||||
67 | 2025-11-04 09:00:00 | 21.4 | 4.8 | 4.3 | 23.5 | 11.802 | 10.26 | 67.5 | 4.4 | |||||||||||||||||
68 | 2025-11-04 10:00:00 | 11.4 | 27.9 | 3.3 | 16.3 | 11.807 | 14.17 | 50.1 | 3.9 | |||||||||||||||||
69 | 2025-11-04 11:00:00 | 8.6 | 38.3 | 2.6 | 13.8 | 11.806 | 15.76 | 40 | 2.1 | |||||||||||||||||
70 | 2025-11-04 12:00:00 | 9.5 | 39.5 | 2.5 | 12.4 | 11.812 | 15.83 | 39.8 | 2.2 | |||||||||||||||||
71 | 2025-11-04 13:00:00 | 8.3 | 39.7 | 3.2 | 15.7 | 11.808 | 14.8 | 40.4 | 1.4 | |||||||||||||||||
72 | 2025-11-04 14:00:00 | 8.6 | 39.9 | 3.6 | 16.3 | 11.809 | 14.31 | 39.9 | 0.8 | |||||||||||||||||
73 | 2025-11-04 15:00:00 | 13.8 | 29.1 | 3.3 | 16.3 | 11.809 | 14.04 | 46 | 2.6 | |||||||||||||||||
74 | 2025-11-04 16:00:00 | 17.7 | 21.4 | 3.4 | 16.5 | 11.807 | 13.81 | 46.3 | 2.5 | |||||||||||||||||
75 | 2025-11-04 17:00:00 | 23.7 | 3.3 | 5.2 | 22.9 | 11.809 | 13.2 | 46.5 | 2 | |||||||||||||||||
76 | 2025-11-04 18:00:00 | 18.4 | 12.9 | 5.9 | 22.1 | 11.807 | 12.61 | 42.3 | 0.1 | |||||||||||||||||
77 | 2025-11-04 19:00:00 | 11.6 | 28.1 | 4.8 | 19.7 | 11.804 | 11.9 | 39.7 | -1.4 | |||||||||||||||||
78 | 2025-11-04 20:00:00 | 8.6 | 36.5 | 4.4 | 17.5 | 11.806 | 11.27 | 38.7 | -2.3 | |||||||||||||||||
79 | 2025-11-04 21:00:00 | 6.3 | 43.1 | 4.5 | 17.2 | 11.803 | 11.63 | 35.6 | -3.1 | |||||||||||||||||
80 | 2025-11-04 22:00:00 | 7.1 | 41.2 | 4.6 | 17.5 | 11.802 | 11.58 | 35.7 | -3.1 | |||||||||||||||||
81 | 2025-11-04 23:00:00 | 6.4 | 45.7 | 4.1 | 15.4 | 11.803 | 11.72 | 34.3 | -3.5 | |||||||||||||||||
82 | 2025-11-05 00:00:00 | 6.1 | 45.3 | 4 | 15.2 | 11.799 | 11.68 | 37.1 | -2.5 | |||||||||||||||||
83 | 2025-11-05 01:00:00 | 6.1 | 45.2 | 4.1 | 14.9 | 11.802 | 11.63 | 44.4 | -0.1 | |||||||||||||||||
84 | 2025-11-05 02:00:00 | 5.6 | 46.2 | 4.1 | 13.8 | 11.802 | 12.06 | 54.9 | 3.2 | |||||||||||||||||
85 | 2025-11-05 03:00:00 | 5.8 | 44.3 | 4.4 | 14.4 | 11.804 | 12.13 | 60.4 | 4.7 | |||||||||||||||||
86 | 2025-11-05 04:00:00 | 6.8 | 41.1 | 4.6 | 14.6 | 11.805 | 11.6 | 67.4 | 5.8 | |||||||||||||||||
87 | 2025-11-05 05:00:00 | 8.3 | 37.8 | 5.1 | 14.9 | 11.802 | 11.59 | 76 | 7.5 | |||||||||||||||||
88 | 2025-11-05 06:00:00 | 8.9 | 35 | 5.5 | 15.2 | 11.806 | 12.62 | 82.1 | 9.7 | |||||||||||||||||
89 | 2025-11-05 07:00:00 | 11.2 | 31.2 | 5.7 | 16.9 | 11.805 | 12.64 | 83.8 | 10 | |||||||||||||||||
90 | 2025-11-05 08:00:00 | 11.8 | 29.1 | 7.1 | 25.1 | 11.804 | 12.86 | 81.5 | 9.8 | |||||||||||||||||
91 | 2025-11-05 09:00:00 | 8.9 | 36.1 | 6.9 | 21.5 | 11.805 | 13.14 | 77.4 | 9.3 | |||||||||||||||||
92 | 2025-11-05 10:00:00 | 8.7 | 35.4 | 8.1 | 23.6 | 11.804 | 13.6 | 68.7 | 7.9 | |||||||||||||||||
93 | 2025-11-05 11:00:00 | 8.2 | 34.2 | 8.4 | 25.2 | 11.807 | 14.04 | 61 | 6.6 | |||||||||||||||||
94 | 2025-11-05 12:00:00 | 8 | 38.6 | 6 | 17.5 | 11.802 | 12.37 | 65.4 | 6 | |||||||||||||||||
95 | 2025-11-05 13:00:00 | 8 | 42.1 | 4.6 | 13.8 | 11.802 | 11.85 | 64.3 | 5.3 | |||||||||||||||||
96 | 2025-11-05 14:00:00 | 8.6 | 45.5 | 2.3 | 8.9 | 11.806 | 11.76 | 58 | 3.7 | |||||||||||||||||
97 | 2025-11-05 15:00:00 | 8.4 | 46.6 | 1.8 | 7.9 | 11.804 | 11.56 | 51.7 | 1.9 | |||||||||||||||||
98 | 2025-11-05 16:00:00 | 8 | 49.4 | 1.6 | 7.8 | 11.806 | 11.12 | 46.9 | 0.2 | |||||||||||||||||
99 | 2025-11-05 17:00:00 | 8.2 | 46.3 | 2.1 | 9.1 | 11.802 | 10.03 | 48.4 | -0.4 | |||||||||||||||||
100 | 2025-11-05 18:00:00 | 13 | 33.6 | 2.3 | 10.5 | 11.8 | 8.82 | 54.8 | 0.2 | |||||||||||||||||